createdAt,value
2017-01-29T00:00:11.890Z,1007.65
2017-01-29T00:00:33.597Z,1007.53
2017-01-29T00:00:55.299Z,1007.52
2017-01-29T00:01:17.111Z,1007.55
2017-01-29T00:01:43.588Z,1007.51
2017-01-29T00:02:05.290Z,1007.50
2017-01-29T00:02:31.777Z,1007.50
2017-01-29T00:02:53.586Z,1007.51
2017-01-29T00:03:15.281Z,1007.51
2017-01-29T00:03:37.002Z,1007.55
2017-01-29T00:03:58.702Z,1007.56
2017-01-29T00:04:20.505Z,1007.60
2017-01-29T00:04:42.212Z,1007.58
2017-01-29T00:05:03.936Z,1007.57
2017-01-29T00:05:25.648Z,1007.57
2017-01-29T00:05:47.441Z,1007.59
2017-01-29T00:06:09.147Z,1007.59
2017-01-29T00:06:35.632Z,1007.66
2017-01-29T00:06:57.479Z,1007.53
2017-01-29T00:07:19.188Z,1007.54
2017-01-29T00:07:45.673Z,1007.55
2017-01-29T00:08:07.377Z,1007.61
2017-01-29T00:08:29.082Z,1007.63
2017-01-29T00:08:55.571Z,1007.53
2017-01-29T00:09:17.274Z,1007.56
2017-01-29T00:09:38.986Z,1007.58
2017-01-29T00:10:00.699Z,1007.51
2017-01-29T00:10:22.401Z,1007.52
2017-01-29T00:10:48.881Z,1007.55
2017-01-29T00:11:10.666Z,1007.46
2017-01-29T00:11:32.368Z,1007.53
2017-01-29T00:11:54.100Z,1007.47
2017-01-29T00:12:15.799Z,1007.52
2017-01-29T00:13:18.990Z,1007.48
2017-01-29T00:13:40.715Z,1007.49
2017-01-29T00:14:02.512Z,1007.46
2017-01-29T00:14:24.228Z,1007.48
2017-01-29T00:14:45.948Z,1007.36
2017-01-29T00:15:12.425Z,1007.49
2017-01-29T00:15:34.244Z,1007.47
2017-01-29T00:15:55.956Z,1007.44
2017-01-29T00:16:22.436Z,1007.48
2017-01-29T00:16:44.144Z,1007.50
2017-01-29T00:17:06.000Z,1007.60
2017-01-29T00:17:27.687Z,1007.55
2017-01-29T00:17:49.398Z,1007.49
2017-01-29T00:18:11.101Z,1007.50
2017-01-29T00:18:32.903Z,1007.49
2017-01-29T00:18:54.613Z,1007.48
2017-01-29T00:19:21.185Z,1007.56
2017-01-29T00:19:42.990Z,1007.55
2017-01-29T00:20:04.795Z,1007.50
2017-01-29T00:20:57.747Z,1007.56
2017-01-29T00:21:19.450Z,1007.52
2017-01-29T00:21:41.159Z,1007.46
2017-01-29T00:22:02.855Z,1007.48
2017-01-29T00:22:24.672Z,1007.45
2017-01-29T00:22:51.153Z,1007.47
2017-01-29T00:23:12.867Z,1007.38
2017-01-29T00:23:34.563Z,1007.32
2017-01-29T00:23:56.359Z,1007.49
2017-01-29T00:24:18.058Z,1007.41
2017-01-29T00:24:44.546Z,1007.52
2017-01-29T00:25:06.334Z,1007.40
2017-01-29T00:25:28.042Z,1007.37
2017-01-29T00:25:54.523Z,1007.37
2017-01-29T00:26:16.337Z,1007.37
2017-01-29T00:26:42.727Z,1007.40
2017-01-29T00:27:04.453Z,1007.36
2017-01-29T00:27:26.164Z,1007.35
2017-01-29T00:27:52.740Z,1007.36
2017-01-29T00:28:14.466Z,1007.33
2017-01-29T00:28:36.186Z,1007.26
2017-01-29T00:29:02.669Z,1007.28
2017-01-29T00:29:24.383Z,1007.33
2017-01-29T00:29:46.094Z,1007.37
2017-01-29T00:30:07.805Z,1007.41
2017-01-29T00:30:29.498Z,1007.51
2017-01-29T00:30:56.080Z,1007.52
2017-01-29T00:31:17.774Z,1007.43
2017-01-29T00:31:44.257Z,1007.45
2017-01-29T00:32:06.043Z,1007.44
2017-01-29T00:32:27.767Z,1007.44
2017-01-29T00:32:49.470Z,1007.42
2017-01-29T00:33:11.176Z,1007.45
2017-01-29T00:33:33.056Z,1007.47
2017-01-29T00:33:59.515Z,1007.45
2017-01-29T00:34:21.225Z,1007.42
2017-01-29T00:34:47.716Z,1007.37
2017-01-29T00:35:09.515Z,1007.36
2017-01-29T00:35:31.211Z,1007.42
2017-01-29T00:35:52.926Z,1007.44
2017-01-29T00:36:14.644Z,1007.38
2017-01-29T00:36:36.463Z,1007.39
2017-01-29T00:36:58.200Z,1007.41
2017-01-29T00:37:19.883Z,1007.40
2017-01-29T00:37:46.362Z,1007.41
2017-01-29T00:38:08.183Z,1007.35
2017-01-29T00:38:29.899Z,1007.35
2017-01-29T00:38:51.614Z,1007.36
2017-01-29T00:39:13.331Z,1007.33
2017-01-29T00:39:35.126Z,1007.31
2017-01-29T00:39:56.877Z,1007.33
2017-01-29T00:40:49.815Z,1007.43
2017-01-29T00:41:11.523Z,1007.41
2017-01-29T00:41:33.227Z,1007.46
2017-01-29T00:41:54.955Z,1007.41
2017-01-29T00:42:16.759Z,1007.38
2017-01-29T00:42:43.255Z,1007.40
2017-01-29T00:43:04.950Z,1007.42
2017-01-29T00:43:26.746Z,1007.40
2017-01-29T00:43:48.490Z,1007.42
2017-01-29T00:44:10.185Z,1007.46
2017-01-29T00:44:31.888Z,1007.52
2017-01-29T00:44:53.686Z,1007.38
2017-01-29T00:45:15.393Z,1007.39
2017-01-29T00:45:37.095Z,1007.49
2017-01-29T00:45:58.809Z,1007.47
2017-01-29T00:46:20.604Z,1007.44
2017-01-29T00:46:42.314Z,1007.52
2017-01-29T00:47:04.015Z,1007.50
2017-01-29T00:47:25.728Z,1007.52
2017-01-29T00:47:47.523Z,1007.58
2017-01-29T00:48:09.312Z,1007.52
2017-01-29T00:48:31.024Z,1007.47
2017-01-29T00:48:52.768Z,1007.56
2017-01-29T00:49:14.579Z,1007.44
2017-01-29T00:50:07.660Z,1007.41
2017-01-29T00:50:29.267Z,1007.44
2017-01-29T00:50:50.979Z,1007.51
2017-01-29T00:51:12.677Z,1007.57
2017-01-29T00:51:34.403Z,1007.59
2017-01-29T00:51:56.211Z,1007.49
2017-01-29T00:52:17.913Z,1007.52
2017-01-29T00:52:44.392Z,1007.58
2017-01-29T00:53:10.889Z,1007.53
2017-01-29T00:53:32.604Z,1007.54
2017-01-29T00:53:54.364Z,1007.63
2017-01-29T00:55:01.647Z,1007.63
2017-01-29T00:55:23.484Z,1007.55
2017-01-29T00:55:49.970Z,1007.57
2017-01-29T00:56:11.679Z,1007.54
2017-01-29T00:56:38.162Z,1007.51
2017-01-29T00:56:59.951Z,1007.56
2017-01-29T00:57:21.665Z,1007.54
2017-01-29T00:57:48.148Z,1007.50
2017-01-29T00:58:09.868Z,1007.50
2017-01-29T00:58:31.663Z,1007.52
2017-01-29T00:58:53.372Z,1007.55
2017-01-29T00:59:15.068Z,1007.48
2017-01-29T01:00:17.592Z,1007.55
2017-01-29T01:00:39.391Z,1007.50
2017-01-29T01:01:01.113Z,1007.46
2017-01-29T01:01:22.820Z,1007.50
2017-01-29T01:01:44.533Z,1007.54
2017-01-29T01:02:13.183Z,1007.55
2017-01-29T01:02:40.035Z,1007.50
2017-01-29T01:05:06.885Z,1007.59
2017-01-29T01:05:28.505Z,1007.47
2017-01-29T01:05:50.222Z,1007.49
2017-01-29T01:06:11.967Z,1007.50
2017-01-29T01:06:33.666Z,1007.42
2017-01-29T01:06:55.368Z,1007.41
2017-01-29T01:07:17.074Z,1007.43
2017-01-29T01:08:24.373Z,1007.37
2017-01-29T01:08:46.124Z,1007.36
2017-01-29T01:09:07.825Z,1007.39
2017-01-29T01:09:29.557Z,1007.34
2017-01-29T01:09:51.269Z,1007.42
2017-01-29T01:10:12.984Z,1007.45
2017-01-29T01:10:34.715Z,1007.45
2017-01-29T01:10:56.430Z,1007.49
2017-01-29T01:11:22.926Z,1007.54
2017-01-29T01:11:44.626Z,1007.56
2017-01-29T01:12:06.344Z,1007.51
2017-01-29T01:12:32.811Z,1007.43
2017-01-29T01:12:54.516Z,1007.45
2017-01-29T01:13:16.219Z,1007.46
2017-01-29T01:14:09.205Z,1007.44
2017-01-29T01:14:35.688Z,1007.45
2017-01-29T01:14:57.395Z,1007.46
2017-01-29T01:15:23.867Z,1007.46
2017-01-29T01:15:45.585Z,1007.45
2017-01-29T01:16:07.300Z,1007.49
2017-01-29T01:16:33.777Z,1007.50
2017-01-29T01:16:55.477Z,1007.44
2017-01-29T01:17:21.965Z,1007.43
2017-01-29T01:17:43.675Z,1007.48
2017-01-29T01:18:10.146Z,1007.55
2017-01-29T01:18:31.848Z,1007.50
2017-01-29T01:18:58.327Z,1007.49
2017-01-29T01:19:23.025Z,1007.49
2017-01-29T01:19:49.351Z,1007.47
2017-01-29T01:20:11.051Z,1007.50
2017-01-29T01:20:32.781Z,1007.47
2017-01-29T01:20:54.494Z,1007.49
2017-01-29T01:21:16.196Z,1007.40
2017-01-29T01:21:42.670Z,1007.47
2017-01-29T01:22:04.395Z,1007.47
2017-01-29T01:22:30.883Z,1007.49
2017-01-29T01:22:57.368Z,1007.48
2017-01-29T01:23:19.072Z,1007.46
2017-01-29T01:23:45.566Z,1007.48
2017-01-29T01:24:07.261Z,1007.51
2017-01-29T01:24:28.999Z,1007.50
2017-01-29T01:24:55.476Z,1007.51
2017-01-29T01:25:17.176Z,1007.51
2017-01-29T01:25:38.887Z,1007.56
2017-01-29T01:26:05.406Z,1007.58
2017-01-29T01:26:27.086Z,1007.50
2017-01-29T01:26:53.559Z,1007.54
2017-01-29T01:27:15.251Z,1007.53
2017-01-29T01:27:41.732Z,1007.50
2017-01-29T01:28:03.436Z,1007.61
2017-01-29T01:28:25.145Z,1007.62
2017-01-29T01:28:46.855Z,1007.58
2017-01-29T01:29:08.554Z,1007.58
2017-01-29T01:29:35.051Z,1007.55
2017-01-29T01:29:56.752Z,1007.54
2017-01-29T01:30:18.464Z,1007.53
2017-01-29T01:30:44.944Z,1007.60
2017-01-29T01:31:06.655Z,1007.57
2017-01-29T01:31:28.365Z,1007.55
2017-01-29T01:31:54.839Z,1007.48
2017-01-29T01:32:16.564Z,1007.52
2017-01-29T01:32:43.038Z,1007.54
2017-01-29T01:33:04.764Z,1007.49
2017-01-29T01:33:31.239Z,1007.49
2017-01-29T01:33:52.947Z,1007.48
2017-01-29T01:34:17.008Z,1007.51
2017-01-29T01:34:38.615Z,1007.50
2017-01-29T01:35:00.327Z,1007.62
2017-01-29T01:35:26.826Z,1007.59
2017-01-29T01:35:53.155Z,1007.46
2017-01-29T01:36:14.915Z,1007.48
2017-01-29T01:36:36.637Z,1007.54
2017-01-29T01:36:58.349Z,1007.54
2017-01-29T01:37:24.867Z,1007.53
2017-01-29T01:37:46.563Z,1007.57
2017-01-29T01:38:10.691Z,1007.55
2017-01-29T01:38:32.428Z,1007.58
2017-01-29T01:38:58.909Z,1007.70
2017-01-29T01:39:23.245Z,1007.61
2017-01-29T01:40:26.374Z,1007.53
2017-01-29T01:40:48.064Z,1007.53
2017-01-29T01:41:14.563Z,1007.54
2017-01-29T01:41:42.205Z,1007.46
2017-01-29T01:42:08.672Z,1007.50
2017-01-29T01:43:04.066Z,1007.53
2017-01-29T01:43:25.778Z,1007.47
2017-01-29T01:44:29.043Z,1007.52
2017-01-29T01:44:53.231Z,1007.56
2017-01-29T01:45:22.374Z,1007.54
2017-01-29T01:45:48.852Z,1007.43
2017-01-29T01:46:12.573Z,1007.51
2017-01-29T01:47:05.520Z,1007.58
2017-01-29T01:47:32.022Z,1007.61
2017-01-29T01:47:53.725Z,1007.58
2017-01-29T01:48:15.466Z,1007.58
2017-01-29T01:48:37.197Z,1007.58
2017-01-29T01:48:59.052Z,1007.56
2017-01-29T01:49:28.516Z,1007.70
2017-01-29T01:51:48.177Z,1007.54
2017-01-29T01:52:25.850Z,1007.55
2017-01-29T01:52:47.437Z,1007.58
2017-01-29T01:53:16.529Z,1007.50
2017-01-29T01:53:42.918Z,1007.63
2017-01-29T01:54:07.194Z,1007.58
2017-01-29T01:55:00.196Z,1007.53
2017-01-29T01:55:26.685Z,1007.56
2017-01-29T01:55:56.186Z,1007.57
2017-01-29T01:56:23.309Z,1007.57
2017-01-29T01:56:49.815Z,1007.57
2017-01-29T01:57:11.534Z,1007.60
2017-01-29T01:57:40.644Z,1007.58
2017-01-29T01:58:05.330Z,1007.59
2017-01-29T01:58:29.005Z,1007.53
2017-01-29T01:59:24.493Z,1007.55
2017-01-29T01:59:53.186Z,1007.49
2017-01-29T02:00:24.465Z,1007.46
2017-01-29T02:01:17.445Z,1007.50
2017-01-29T02:01:46.359Z,1007.48
2017-01-29T02:02:08.066Z,1007.60
2017-01-29T02:02:29.777Z,1007.59
2017-01-29T02:02:56.260Z,1007.47
2017-01-29T02:03:17.970Z,1007.50
2017-01-29T02:04:10.935Z,1007.48
2017-01-29T02:04:37.421Z,1007.53
2017-01-29T02:04:59.125Z,1007.47
2017-01-29T02:05:25.608Z,1007.51
2017-01-29T02:05:47.317Z,1007.50
2017-01-29T02:06:09.028Z,1007.47
2017-01-29T02:06:30.744Z,1007.42
2017-01-29T02:06:54.632Z,1007.49
2017-01-29T02:07:16.168Z,1007.47
2017-01-29T02:08:09.131Z,1007.56
2017-01-29T02:08:30.840Z,1007.54
2017-01-29T02:08:57.320Z,1007.53
2017-01-29T02:09:19.025Z,1007.53
2017-01-29T02:09:45.519Z,1007.55
2017-01-29T02:10:07.311Z,1007.52
2017-01-29T02:10:33.790Z,1007.53
2017-01-29T02:10:55.496Z,1007.53
2017-01-29T02:11:21.979Z,1007.51
2017-01-29T02:11:43.686Z,1007.57
2017-01-29T02:12:05.416Z,1007.52
2017-01-29T02:12:31.890Z,1007.59
2017-01-29T02:12:53.605Z,1007.56
2017-01-29T02:13:20.091Z,1007.57
2017-01-29T02:13:41.884Z,1007.64
2017-01-29T02:14:34.901Z,1007.61
2017-01-29T02:14:56.633Z,1007.62
2017-01-29T02:15:18.434Z,1007.56
2017-01-29T02:15:40.236Z,1007.58
2017-01-29T02:16:06.800Z,1007.62
2017-01-29T02:16:28.505Z,1007.63
2017-01-29T02:16:50.210Z,1007.61
2017-01-29T02:17:16.697Z,1007.60
2017-01-29T02:17:38.489Z,1007.52
2017-01-29T02:18:00.210Z,1007.59
2017-01-29T02:18:22.022Z,1007.58
2017-01-29T02:18:43.711Z,1007.53
2017-01-29T02:19:06.482Z,1007.63
2017-01-29T02:19:33.062Z,1007.48
2017-01-29T02:19:55.001Z,1007.47
2017-01-29T02:20:21.433Z,1007.52
2017-01-29T02:20:43.830Z,1007.53
2017-01-29T02:21:10.329Z,1007.57
2017-01-29T02:21:32.575Z,1007.53
2017-01-29T02:21:54.380Z,1007.57
2017-01-29T02:22:47.932Z,1007.59
2017-01-29T02:23:10.018Z,1007.57
2017-01-29T02:23:36.675Z,1007.67
2017-01-29T02:24:01.114Z,1007.50
2017-01-29T02:24:22.967Z,1007.49
2017-01-29T02:25:25.693Z,1007.58
2017-01-29T02:25:47.401Z,1007.60
2017-01-29T02:26:09.148Z,1007.51
2017-01-29T02:26:30.892Z,1007.46
2017-01-29T02:26:52.800Z,1007.41
2017-01-29T02:27:14.474Z,1007.47
2017-01-29T02:27:41.173Z,1007.50
2017-01-29T02:28:02.880Z,1007.45
2017-01-29T02:28:56.121Z,1007.43
2017-01-29T02:29:17.750Z,1007.42
2017-01-29T02:29:39.463Z,1007.44
2017-01-29T02:30:01.170Z,1007.49
2017-01-29T02:30:22.874Z,1007.36
2017-01-29T02:30:49.345Z,1007.42
2017-01-29T02:31:11.187Z,1007.42
2017-01-29T02:31:32.904Z,1007.38
2017-01-29T02:31:54.624Z,1007.40
2017-01-29T02:32:16.375Z,1007.40
2017-01-29T02:32:42.880Z,1007.40
2017-01-29T02:33:04.592Z,1007.39
2017-01-29T02:33:26.311Z,1007.41
2017-01-29T02:33:48.039Z,1007.35
2017-01-29T02:34:15.370Z,1007.38
2017-01-29T02:34:44.253Z,1007.39
2017-01-29T02:35:11.527Z,1007.41
2017-01-29T02:35:33.144Z,1007.46
2017-01-29T02:35:57.693Z,1007.28
2017-01-29T02:36:39.943Z,1007.26
2017-01-29T02:37:06.023Z,1007.34
2017-01-29T02:37:32.378Z,1007.49
2017-01-29T02:37:58.548Z,1007.34
2017-01-29T02:39:07.185Z,1007.38
2017-01-29T02:39:48.576Z,1007.31
2017-01-29T02:40:17.622Z,1007.51
2017-01-29T02:40:39.330Z,1007.41
2017-01-29T02:41:05.803Z,1007.47
2017-01-29T02:41:27.516Z,1007.41
2017-01-29T02:41:49.255Z,1007.42
2017-01-29T02:42:10.988Z,1007.49
2017-01-29T02:42:32.699Z,1007.49
2017-01-29T02:42:59.175Z,1007.53
2017-01-29T02:43:20.919Z,1007.52
2017-01-29T02:43:42.640Z,1007.53
2017-01-29T02:44:09.118Z,1007.48
2017-01-29T02:44:30.829Z,1007.47
2017-01-29T02:44:52.528Z,1007.53
2017-01-29T02:45:45.529Z,1007.53
2017-01-29T02:46:07.239Z,1007.54
2017-01-29T02:47:00.209Z,1007.53
2017-01-29T02:47:26.683Z,1007.55
2017-01-29T02:47:48.395Z,1007.51
2017-01-29T02:48:14.902Z,1007.49
2017-01-29T02:48:36.654Z,1007.50
2017-01-29T02:48:58.347Z,1007.54
2017-01-29T02:49:20.109Z,1007.53
2017-01-29T02:49:41.809Z,1007.61
2017-01-29T02:50:03.520Z,1007.66
2017-01-29T02:50:56.487Z,1007.58
2017-01-29T02:51:18.197Z,1007.63
2017-01-29T02:51:39.905Z,1007.63
2017-01-29T02:52:01.627Z,1007.61
2017-01-29T02:52:23.338Z,1007.56
2017-01-29T02:53:16.299Z,1007.65
2017-01-29T02:53:38.018Z,1007.62
2017-01-29T02:54:30.978Z,1007.65
2017-01-29T02:54:52.718Z,1007.66
2017-01-29T02:55:14.456Z,1007.58
2017-01-29T02:55:36.171Z,1007.60
2017-01-29T02:55:57.867Z,1007.60
2017-01-29T02:56:24.364Z,1007.59
2017-01-29T02:56:46.091Z,1007.61
2017-01-29T02:57:39.066Z,1007.55
2017-01-29T02:58:32.050Z,1007.57
2017-01-29T02:58:58.527Z,1007.70
2017-01-29T02:59:20.251Z,1007.64
2017-01-29T02:59:42.005Z,1007.72
2017-01-29T03:00:03.704Z,1007.66
2017-01-29T03:00:25.522Z,1007.65
2017-01-29T03:00:47.243Z,1007.61
2017-01-29T03:01:16.620Z,1007.66
2017-01-29T03:01:38.267Z,1007.72
2017-01-29T03:02:31.246Z,1007.77
2017-01-29T03:03:24.257Z,1007.68
2017-01-29T03:03:46.143Z,1007.66
2017-01-29T03:04:07.859Z,1007.69
2017-01-29T03:04:29.572Z,1007.71
2017-01-29T03:04:51.368Z,1007.70
2017-01-29T03:05:13.112Z,1007.66
2017-01-29T03:05:34.844Z,1007.74
2017-01-29T03:06:27.897Z,1007.64
2017-01-29T03:06:49.583Z,1007.69
2017-01-29T03:07:16.102Z,1007.67
2017-01-29T03:07:37.900Z,1007.61
2017-01-29T03:08:04.364Z,1007.69
2017-01-29T03:08:26.095Z,1007.67
2017-01-29T03:08:52.594Z,1007.67
2017-01-29T03:09:14.328Z,1007.64
2017-01-29T03:09:38.354Z,1007.63
2017-01-29T03:10:31.310Z,1007.61
2017-01-29T03:10:53.035Z,1007.57
2017-01-29T03:11:14.760Z,1007.59
2017-01-29T03:11:36.488Z,1007.56
2017-01-29T03:12:34.817Z,1007.57
2017-01-29T03:12:56.543Z,1007.52
2017-01-29T03:13:18.255Z,1007.63
2017-01-29T03:13:40.051Z,1007.53
2017-01-29T03:14:01.759Z,1007.66
2017-01-29T03:14:28.260Z,1007.59
2017-01-29T03:14:50.005Z,1007.53
2017-01-29T03:15:11.741Z,1007.49
2017-01-29T03:16:04.804Z,1007.53
2017-01-29T03:16:26.584Z,1007.59
2017-01-29T03:16:53.125Z,1007.56
2017-01-29T03:17:14.905Z,1007.53
2017-01-29T03:17:36.645Z,1007.47
2017-01-29T03:18:03.176Z,1007.58
2017-01-29T03:18:24.904Z,1007.47
2017-01-29T03:18:47.714Z,1007.45
2017-01-29T03:19:14.325Z,1007.44
2017-01-29T03:19:36.117Z,1007.51
2017-01-29T03:19:57.871Z,1007.51
2017-01-29T03:20:24.423Z,1007.61
2017-01-29T03:21:17.487Z,1007.58
2017-01-29T03:21:39.307Z,1007.67
2017-01-29T03:22:05.724Z,1007.55
2017-01-29T03:22:29.912Z,1007.64
2017-01-29T03:23:23.136Z,1007.59
2017-01-29T03:24:16.418Z,1007.66
2017-01-29T03:24:43.025Z,1007.65
2017-01-29T03:25:04.825Z,1007.66
2017-01-29T03:25:26.600Z,1007.65
2017-01-29T03:26:22.109Z,1007.64
2017-01-29T03:27:27.982Z,1007.65
2017-01-29T03:27:59.087Z,1007.63
2017-01-29T03:28:56.901Z,1007.71
2017-01-29T03:29:56.229Z,1007.68
2017-01-29T03:30:17.964Z,1007.69
2017-01-29T03:31:10.965Z,1007.67
2017-01-29T03:31:32.682Z,1007.68
2017-01-29T03:31:59.205Z,1007.69
2017-01-29T03:32:28.321Z,1007.73
2017-01-29T03:32:57.678Z,1007.67
2017-01-29T03:33:26.674Z,1007.72
2017-01-29T03:33:55.581Z,1007.77
2017-01-29T03:34:17.301Z,1007.74
2017-01-29T03:34:50.994Z,1007.79
2017-01-29T03:35:19.851Z,1007.79
2017-01-29T03:35:41.583Z,1007.74
2017-01-29T03:36:46.699Z,1007.76
2017-01-29T03:37:13.189Z,1007.77
2017-01-29T03:38:10.802Z,1007.80
2017-01-29T03:38:42.382Z,1007.78
2017-01-29T03:39:06.511Z,1007.82
2017-01-29T03:41:15.999Z,1007.89
2017-01-29T03:41:45.235Z,1007.80
2017-01-29T03:42:50.671Z,1007.83
2017-01-29T03:43:20.031Z,1007.81
2017-01-29T03:44:25.029Z,1007.81
2017-01-29T03:44:46.747Z,1007.85
2017-01-29T03:45:57.547Z,1007.81
2017-01-29T03:46:24.056Z,1007.76
2017-01-29T03:47:01.839Z,1007.75
2017-01-29T03:47:30.919Z,1007.75
2017-01-29T03:47:57.538Z,1007.72
2017-01-29T03:48:28.856Z,1007.84
2017-01-29T03:49:10.133Z,1007.84
2017-01-29T03:50:16.948Z,1007.78
2017-01-29T03:50:41.493Z,1007.86
2017-01-29T03:51:47.441Z,1007.86
2017-01-29T03:53:10.614Z,1007.80
2017-01-29T03:53:37.515Z,1007.95
2017-01-29T03:54:14.847Z,1007.91
2017-01-29T03:55:31.165Z,1008.10
2017-01-29T03:55:56.863Z,1008.03
2017-01-29T03:56:21.353Z,1007.97
2017-01-29T03:56:56.676Z,1008.05
2017-01-29T03:57:23.071Z,1008.04
2017-01-29T03:57:58.317Z,1007.96
2017-01-29T03:58:22.562Z,1007.97
2017-01-29T03:58:52.085Z,1008.01
2017-01-29T03:59:16.254Z,1008.00
2017-01-29T04:01:05.384Z,1007.99
2017-01-29T04:02:20.834Z,1007.94
2017-01-29T04:03:41.522Z,1007.97
2017-01-29T04:04:22.889Z,1007.99
2017-01-29T04:04:52.719Z,1007.94
2017-01-29T04:05:31.543Z,1007.86
2017-01-29T04:06:02.341Z,1007.88
2017-01-29T04:06:31.461Z,1007.87
2017-01-29T04:07:17.561Z,1007.82
2017-01-29T04:08:30.344Z,1007.84
2017-01-29T04:09:01.670Z,1007.94
2017-01-29T04:09:35.503Z,1007.82
2017-01-29T04:10:03.998Z,1007.82
2017-01-29T04:11:20.041Z,1007.88
2017-01-29T04:11:57.867Z,1007.88
2017-01-29T04:13:37.685Z,1007.90
2017-01-29T04:16:49.432Z,1007.78
2017-01-29T04:17:15.921Z,1007.82
2017-01-29T04:18:29.250Z,1007.78
2017-01-29T04:19:48.382Z,1007.79
2017-01-29T04:21:41.620Z,1007.74
2017-01-29T04:24:19.727Z,1007.68
2017-01-29T04:24:59.040Z,1007.70
2017-01-29T04:27:33.836Z,1007.64
2017-01-29T04:35:29.826Z,1007.81
2017-01-29T04:38:45.257Z,1007.60
2017-01-29T04:40:22.438Z,1007.62
2017-01-29T04:41:05.777Z,1007.52
2017-01-29T04:46:51.021Z,1007.70
2017-01-29T04:54:07.888Z,1008.01
2017-01-29T05:13:34.623Z,1007.95
2017-01-29T07:13:47.803Z,1008.35
2017-01-29T07:14:09.504Z,1008.41
2017-01-29T07:14:31.226Z,1008.34
2017-01-29T07:14:52.917Z,1008.36
2017-01-29T07:15:19.406Z,1008.37
2017-01-29T07:15:41.100Z,1008.38
2017-01-29T07:16:07.585Z,1008.35
2017-01-29T07:16:29.389Z,1008.34
2017-01-29T07:16:51.087Z,1008.30
2017-01-29T07:17:53.591Z,1008.30
2017-01-29T07:18:20.159Z,1008.36
2017-01-29T07:18:41.887Z,1008.34
2017-01-29T07:19:03.690Z,1008.31
2017-01-29T07:19:25.393Z,1008.36
2017-01-29T07:19:47.183Z,1008.25
2017-01-29T07:20:08.976Z,1008.32
2017-01-29T07:20:35.463Z,1008.30
2017-01-29T07:20:57.233Z,1008.36
2017-01-29T07:21:23.704Z,1008.25
2017-01-29T07:21:46.497Z,1008.27
2017-01-29T07:22:08.200Z,1008.24
2017-01-29T07:22:29.919Z,1008.22
2017-01-29T07:22:51.627Z,1008.24
2017-01-29T07:23:13.438Z,1008.26
2017-01-29T07:23:39.914Z,1008.23
2017-01-29T07:24:01.617Z,1008.26
2017-01-29T07:24:23.335Z,1008.30
2017-01-29T07:24:45.124Z,1008.33
2017-01-29T07:25:06.821Z,1008.33
2017-01-29T07:25:28.526Z,1008.28
2017-01-29T07:25:50.242Z,1008.41
2017-01-29T07:26:12.034Z,1008.41
2017-01-29T07:27:05.008Z,1008.46
2017-01-29T07:28:03.532Z,1008.43
2017-01-29T07:28:25.208Z,1008.44
2017-01-29T07:29:28.490Z,1008.46
2017-01-29T07:29:50.192Z,1008.50
2017-01-29T07:30:11.907Z,1008.46
2017-01-29T07:30:33.699Z,1008.47
2017-01-29T07:30:55.453Z,1008.47
2017-01-29T07:31:17.172Z,1008.51
2017-01-29T07:31:38.885Z,1008.47
2017-01-29T07:32:00.663Z,1008.48
2017-01-29T07:33:03.770Z,1008.43
2017-01-29T07:34:01.515Z,1008.51
2017-01-29T07:34:54.562Z,1008.54
2017-01-29T07:35:57.144Z,1008.54
2017-01-29T07:36:18.869Z,1008.54
2017-01-29T07:36:40.578Z,1008.61
2017-01-29T07:37:02.289Z,1008.54
2017-01-29T07:37:28.862Z,1008.58
2017-01-29T07:37:55.333Z,1008.55
2017-01-29T07:38:17.041Z,1008.56
2017-01-29T07:38:38.765Z,1008.58
2017-01-29T07:39:05.249Z,1008.62
2017-01-29T07:39:27.077Z,1008.55
2017-01-29T07:39:48.803Z,1008.62
2017-01-29T07:40:41.847Z,1008.57
2017-01-29T07:41:03.549Z,1008.60
2017-01-29T07:41:25.281Z,1008.60
2017-01-29T07:41:47.060Z,1008.61
2017-01-29T07:42:08.768Z,1008.70
2017-01-29T07:42:35.243Z,1008.74
2017-01-29T07:42:56.942Z,1008.67
2017-01-29T07:43:49.980Z,1008.76
2017-01-29T07:44:43.035Z,1008.73
2017-01-29T07:45:04.770Z,1008.75
2017-01-29T07:45:26.474Z,1008.70
2017-01-29T07:45:48.167Z,1008.69
2017-01-29T07:46:14.661Z,1008.66
2017-01-29T07:46:36.446Z,1008.69
2017-01-29T07:47:29.480Z,1008.66
2017-01-29T07:47:51.192Z,1008.66
2017-01-29T07:48:12.897Z,1008.64
2017-01-29T07:48:34.611Z,1008.69
2017-01-29T07:49:41.883Z,1008.81
2017-01-29T07:50:08.454Z,1008.73
2017-01-29T07:51:06.760Z,1008.79
2017-01-29T07:51:28.530Z,1008.85
2017-01-29T07:52:41.930Z,1008.75
2017-01-29T07:53:03.721Z,1008.83
2017-01-29T07:53:30.253Z,1008.86
2017-01-29T07:53:52.122Z,1008.77
2017-01-29T07:54:13.920Z,1008.78
2017-01-29T07:54:40.413Z,1008.73
2017-01-29T07:55:02.318Z,1008.85
2017-01-29T07:55:24.112Z,1008.84
2017-01-29T07:55:50.613Z,1008.89
2017-01-29T07:56:12.522Z,1008.90
2017-01-29T07:56:34.350Z,1008.98
2017-01-29T07:56:56.057Z,1008.91
2017-01-29T07:57:17.857Z,1008.95
2017-01-29T07:57:44.380Z,1008.80
2017-01-29T07:58:06.266Z,1008.85
2017-01-29T07:58:32.736Z,1008.92
2017-01-29T07:58:54.593Z,1008.98
2017-01-29T07:59:16.303Z,1008.90
2017-01-29T07:59:38.091Z,1008.85
2017-01-29T07:59:59.981Z,1008.92
2017-01-29T08:00:21.871Z,1008.88
2017-01-29T08:00:48.345Z,1008.93
2017-01-29T08:01:10.231Z,1008.81
2017-01-29T08:01:36.703Z,1008.96
2017-01-29T08:01:58.580Z,1008.88
2017-01-29T08:02:25.090Z,1008.99
2017-01-29T08:02:46.903Z,1009.00
2017-01-29T08:03:13.480Z,1008.98
2017-01-29T08:03:35.271Z,1008.94
2017-01-29T08:03:57.069Z,1008.99
2017-01-29T08:04:23.664Z,1008.99
2017-01-29T08:04:45.418Z,1009.00
2017-01-29T08:05:12.008Z,1008.86
2017-01-29T08:05:33.820Z,1008.94
2017-01-29T08:06:00.381Z,1008.94
2017-01-29T08:06:22.171Z,1008.92
2017-01-29T08:06:48.641Z,1008.97
2017-01-29T08:07:10.337Z,1008.86
2017-01-29T08:07:36.904Z,1008.91
2017-01-29T08:07:58.817Z,1008.92
2017-01-29T08:08:20.604Z,1008.94
2017-01-29T08:08:42.408Z,1008.91
2017-01-29T08:09:04.218Z,1008.98
2017-01-29T08:09:25.893Z,1009.00
2017-01-29T08:09:52.368Z,1008.85
2017-01-29T08:10:14.122Z,1008.87
2017-01-29T08:10:35.832Z,1008.91
2017-01-29T08:10:57.638Z,1008.91
2017-01-29T08:11:19.433Z,1008.83
2017-01-29T08:11:46.008Z,1008.86
2017-01-29T08:12:07.739Z,1008.90
2017-01-29T08:12:29.459Z,1008.92
2017-01-29T08:12:51.160Z,1008.90
2017-01-29T08:13:12.863Z,1008.89
2017-01-29T08:13:34.610Z,1008.84
2017-01-29T08:13:56.409Z,1008.94
2017-01-29T08:14:22.888Z,1008.85
2017-01-29T08:14:44.595Z,1008.87
2017-01-29T08:15:06.321Z,1008.85
2017-01-29T08:15:59.450Z,1008.90
2017-01-29T08:16:21.157Z,1008.82
2017-01-29T08:16:43.032Z,1008.84
2017-01-29T08:17:04.743Z,1008.83
2017-01-29T08:17:57.872Z,1008.90
2017-01-29T08:18:19.649Z,1008.87
2017-01-29T08:18:46.159Z,1008.89
2017-01-29T08:19:07.845Z,1008.87
2017-01-29T08:20:15.131Z,1008.86
2017-01-29T08:20:36.839Z,1008.83
2017-01-29T08:21:39.920Z,1008.86
2017-01-29T08:22:01.627Z,1008.80
2017-01-29T08:22:23.357Z,1008.75
2017-01-29T08:22:49.884Z,1008.83
2017-01-29T08:23:11.631Z,1008.81
2017-01-29T08:23:33.366Z,1008.84
2017-01-29T08:24:35.900Z,1008.80
2017-01-29T08:24:57.610Z,1008.83
2017-01-29T08:25:19.343Z,1008.84
2017-01-29T08:25:45.818Z,1008.82
2017-01-29T08:26:07.515Z,1008.81
2017-01-29T08:27:10.587Z,1008.84
2017-01-29T08:27:32.292Z,1008.81
2017-01-29T08:27:53.997Z,1008.77
2017-01-29T08:28:46.994Z,1008.82
2017-01-29T08:29:40.018Z,1008.84
2017-01-29T08:30:33.040Z,1008.87
2017-01-29T08:31:26.004Z,1008.80
2017-01-29T08:31:47.719Z,1008.81
2017-01-29T08:32:46.030Z,1008.78
2017-01-29T08:33:07.730Z,1008.85
2017-01-29T08:33:29.501Z,1008.82
2017-01-29T08:33:56.080Z,1008.80
2017-01-29T08:34:22.582Z,1008.84
2017-01-29T08:34:49.065Z,1008.99
2017-01-29T08:35:10.769Z,1008.90
2017-01-29T08:36:03.743Z,1009.03
2017-01-29T08:36:25.558Z,1009.02
2017-01-29T08:37:18.530Z,1009.01
2017-01-29T08:38:21.615Z,1009.05
2017-01-29T08:38:43.337Z,1009.07